Time;durP1;ratioP1;P1;durP2;ratioP2;P2;SDS_P1;SDS_P2;PMS_P1;PMS_P2;Temp;Humidity;BMP_temperature;BMP_pressure;BME280_temperature;BME280_humidity;BME280_pressure;Samples;Min_cycle;Max_cycle;Signal;HPM_P1;HPM_P2
2021/01/23 00:02:06;;;;;;;23.75;3.80;;;14.70;99.90;;;;;;4993274;28;20674;-65
2021/01/23 00:04:32;;;;;;;23.25;3.72;;;14.70;99.90;;;;;;4993186;28;20037;-65
2021/01/23 00:06:59;;;;;;;14.68;3.50;;;14.70;99.90;;;;;;4991430;28;20023;-65
2021/01/23 00:09:26;;;;;;;13.15;2.95;;;14.70;99.90;;;;;;4991302;28;20046;-66
2021/01/23 00:11:52;;;;;;;16.98;3.97;;;14.60;99.90;;;;;;4988527;28;20022;-67
2021/01/23 00:14:19;;;;;;;19.38;3.13;;;14.70;99.90;;;;;;4990537;28;20030;-65
2021/01/23 00:16:45;;;;;;;30.75;2.95;;;14.60;99.90;;;;;;4989034;28;20126;-68
2021/01/23 00:19:12;;;;;;;15.98;2.75;;;14.50;99.90;;;;;;4996080;28;20042;-65
2021/01/23 00:21:39;;;;;;;18.17;3.38;;;14.40;99.90;;;;;;4996012;28;20022;-64
2021/01/23 00:24:06;;;;;;;14.90;2.40;;;14.40;99.90;;;;;;4995732;28;20101;-63
2021/01/23 00:26:33;;;;;;;18.05;2.83;;;14.30;99.90;;;;;;4995147;28;20038;-64
2021/01/23 00:29:00;;;;;;;20.77;3.45;;;14.20;99.90;;;;;;4994886;28;20052;-69
2021/01/23 00:31:27;;;;;;;20.13;3.13;;;14.10;99.90;;;;;;4990942;28;20087;-66
2021/01/23 00:33:53;;;;;;;20.25;3.25;;;14.10;99.90;;;;;;4993278;28;20030;-66
2021/01/23 00:36:20;;;;;;;17.25;3.97;;;14.00;99.90;;;;;;4994198;28;20030;-65
2021/01/23 00:38:46;;;;;;;21.00;3.67;;;14.00;99.90;;;;;;5482873;23;20058;-66
2021/01/23 00:41:13;;;;;;;16.60;2.45;;;14.00;99.90;;;;;;4968680;28;20032;-65
2021/01/23 00:43:40;;;;;;;15.63;2.80;;;14.00;99.90;;;;;;4974577;28;20030;-66
2021/01/23 00:46:06;;;;;;;26.10;3.92;;;14.00;99.90;;;;;;4975813;28;20023;-67
2021/01/23 00:48:33;;;;;;;17.90;2.40;;;14.10;99.90;;;;;;4971069;28;20041;-65
2021/01/23 00:50:59;;;;;;;20.55;3.15;;;14.20;99.90;;;;;;4974384;28;20034;-65
2021/01/23 00:53:26;;;;;;;15.48;4.25;;;14.10;99.90;;;;;;4970952;28;20026;-65
2021/01/23 00:55:53;;;;;;;19.70;2.55;;;14.10;99.90;;;;;;4976308;28;20031;-65
2021/01/23 00:58:19;;;;;;;10.25;2.42;;;14.00;99.90;;;;;;4976944;28;20097;-66
2021/01/23 01:00:46;;;;;;;19.17;3.33;;;13.90;99.90;;;;;;4973202;28;20031;-67
2021/01/23 01:03:13;;;;;;;19.45;2.92;;;13.80;99.90;;;;;;4975341;28;20027;-67
2021/01/23 01:05:39;;;;;;;17.58;3.67;;;13.80;99.90;;;;;;4976578;28;20058;-68
2021/01/23 01:08:06;;;;;;;13.05;1.77;;;13.70;99.90;;;;;;4973436;28;20023;-66
2021/01/23 01:10:33;;;;;;;14.63;2.65;;;13.70;99.90;;;;;;4974816;28;20045;-64
2021/01/23 01:12:59;;;;;;;16.77;2.78;;;13.70;99.90;;;;;;4967596;28;20138;-70
2021/01/23 01:15:35;;;;;;;21.98;3.05;;;13.60;99.90;;;;;;4962483;28;21036;-66
2021/01/23 01:18:01;;;;;;;19.88;2.25;;;13.50;99.90;;;;;;4964343;28;20035;-66
2021/01/23 01:20:28;;;;;;;19.55;4.32;;;13.50;99.90;;;;;;4963980;28;20030;-66
2021/01/23 01:22:55;;;;;;;19.30;2.40;;;13.40;99.90;;;;;;4963912;28;20197;-65
2021/01/23 01:25:21;;;;;;;11.80;2.17;;;13.40;99.90;;;;;;4962710;28;20023;-66
2021/01/23 01:27:48;;;;;;;18.98;3.17;;;13.40;99.90;;;;;;4962130;28;20023;-67
2021/01/23 01:30:15;;;;;;;13.88;2.25;;;13.30;99.90;;;;;;4960834;28;20066;-66
2021/01/23 01:32:42;;;;;;;21.05;3.03;;;13.30;99.90;;;;;;4968025;28;20666;-66
2021/01/23 01:35:10;;;;;;;10.18;2.30;;;13.20;99.90;;;;;;4963458;28;20038;-66
2021/01/23 01:37:36;;;;;;;14.38;2.22;;;13.20;99.90;;;;;;4962720;28;20019;-66
2021/01/23 01:40:05;;;;;;;17.27;2.95;;;13.10;99.90;;;;;;4963368;28;20130;-67
2021/01/23 01:42:31;;;;;;;12.95;1.95;;;13.20;99.90;;;;;;4963291;28;20079;-66
2021/01/23 01:44:58;;;;;;;14.95;2.35;;;13.20;99.90;;;;;;4964238;28;20410;-66
2021/01/23 01:47:25;;;;;;;15.70;2.00;;;13.10;99.90;;;;;;4962646;28;20039;-67
2021/01/23 01:49:55;;;;;;;12.60;2.08;;;13.10;99.90;;;;;;4962054;28;20402;-66
2021/01/23 01:52:21;;;;;;;15.50;2.95;;;13.10;99.90;;;;;;4963656;28;20361;-67
2021/01/23 01:54:51;;;;;;;11.30;2.13;;;13.10;99.90;;;;;;4961677;28;20031;-65
2021/01/23 01:57:22;;;;;;;11.38;2.53;;;13.10;99.90;;;;;;4962973;28;20143;-66
2021/01/23 01:59:49;;;;;;;13.50;2.80;;;13.10;99.90;;;;;;4963397;28;20035;-67
2021/01/23 02:02:31;;;;;;;12.48;2.08;;;13.20;99.90;;;;;;4963249;28;20696;-67
2021/01/23 02:05:05;;;;;;;13.63;2.88;;;13.20;99.90;;;;;;4959301;28;20039;-66
2021/01/23 02:07:45;;;;;;;16.05;2.85;;;13.20;99.90;;;;;;4960732;28;20383;-67
2021/01/23 02:10:48;;;;;;;10.00;1.75;;;13.20;99.90;;;;;;4961142;28;20042;-67
2021/01/23 02:13:32;;;;;;;8.20;1.20;;;13.20;99.90;;;;;;4962838;28;20145;-66
2021/01/23 02:16:05;;;;;;;17.30;2.42;;;13.20;99.90;;;;;;4962595;28;20073;-66
2021/01/23 02:18:43;;;;;;;15.00;2.53;;;13.30;99.90;;;;;;4960978;28;20024;-67
2021/01/23 02:21:38;;;;;;;17.25;1.95;;;13.30;99.90;;;;;;4960807;28;20066;-64
2021/01/23 02:24:08;;;;;;;14.90;2.45;;;13.40;99.90;;;;;;4962307;28;20031;-68
2021/01/23 02:26:35;;;;;;;10.88;2.55;;;13.40;99.90;;;;;;4960505;28;20309;-66
2021/01/23 02:29:13;;;;;;;14.50;2.55;;;13.30;99.90;;;;;;4964199;28;20046;-67
2021/01/23 02:31:55;;;;;;;;;;;13.30;99.90;;;;;;4962564;28;20465;-65
2021/01/23 02:34:36;;;;;;;22.80;2.25;;;13.30;99.90;;;;;;4962952;28;19980;-65
2021/01/23 02:37:04;;;;;;;20.80;3.80;;;13.30;99.90;;;;;;4962170;28;20115;-65
2021/01/23 02:39:31;;;;;;;15.52;2.35;;;13.30;99.90;;;;;;4961734;28;20058;-65
2021/01/23 02:41:58;;;;;;;14.85;1.70;;;13.30;99.90;;;;;;4961064;28;20042;-64
2021/01/23 02:44:25;;;;;;;16.98;3.03;;;13.30;99.90;;;;;;4961457;28;20416;-65
2021/01/23 02:46:54;;;;;;;10.95;1.75;;;13.40;99.90;;;;;;4961899;28;20038;-64
2021/01/23 02:49:23;;;;;;;13.02;2.28;;;13.40;99.90;;;;;;4961124;28;20039;-65
2021/01/23 02:51:58;;;;;;;12.32;1.80;;;13.40;99.90;;;;;;4962077;28;20027;-65
2021/01/23 02:54:34;;;;;;;12.30;2.10;;;13.40;99.90;;;;;;4958992;28;20042;-65
2021/01/23 02:57:06;;;;;;;9.75;2.05;;;13.40;99.90;;;;;;4961819;28;20023;-66
2021/01/23 02:59:37;;;;;;;19.48;3.00;;;13.30;99.90;;;;;;4961667;28;20309;-65
2021/01/23 03:02:12;;;;;;;11.90;3.75;;;13.30;99.90;;;;;;4961925;28;20031;-66
2021/01/23 03:04:41;;;;;;;16.98;1.67;;;13.30;99.90;;;;;;4957863;28;20042;-66
2021/01/23 03:07:09;;;;;;;13.70;2.08;;;13.30;99.90;;;;;;4956357;28;20449;-65
2021/01/23 03:09:35;;;;;;;15.77;1.75;;;13.30;99.90;;;;;;4957907;28;20035;-65
2021/01/23 03:12:02;;;;;;;6.90;1.77;;;13.30;99.90;;;;;;4958932;28;20032;-66
2021/01/23 03:14:29;;;;;;;12.02;2.92;;;13.20;99.90;;;;;;4959310;28;20032;-66
2021/01/23 03:16:57;;;;;;;18.40;2.00;;;13.20;99.90;;;;;;4957235;28;20141;-68
2021/01/23 03:19:24;;;;;;;11.30;2.17;;;13.30;99.90;;;;;;4959469;28;20048;-65
2021/01/23 03:21:52;;;;;;;12.90;1.92;;;13.20;99.90;;;;;;4955987;28;20038;-65
2021/01/23 03:24:22;;;;;;;12.85;1.90;;;13.10;99.90;;;;;;4958931;28;20039;-65
2021/01/23 03:26:49;;;;;;;12.07;2.10;;;13.00;99.90;;;;;;4957425;28;20035;-65
2021/01/23 03:29:17;;;;;;;7.03;2.17;;;13.00;99.90;;;;;;4956673;28;20369;-64
2021/01/23 03:31:45;;;;;;;12.30;3.15;;;13.00;99.90;;;;;;4958412;28;20027;-65
2021/01/23 03:34:12;;;;;;;11.38;2.22;;;12.90;99.90;;;;;;4959329;28;20050;-66
2021/01/23 03:36:39;;;;;;;11.73;1.92;;;12.90;99.90;;;;;;4957712;28;20462;-65
2021/01/23 03:39:07;;;;;;;11.60;2.83;;;13.00;99.90;;;;;;4957874;28;20110;-65
2021/01/23 03:41:34;;;;;;;11.75;1.98;;;13.00;99.90;;;;;;4959393;28;20019;-67
2021/01/23 03:44:01;;;;;;;10.15;1.77;;;13.10;99.90;;;;;;4959146;28;20295;-66
2021/01/23 03:46:27;;;;;;;23.23;6.32;;;13.10;99.90;;;;;;4959369;28;20122;-65
2021/01/23 03:48:54;;;;;;;13.75;2.10;;;13.10;99.90;;;;;;4959370;28;20093;-65
2021/01/23 03:51:21;;;;;;;12.52;2.75;;;13.20;99.90;;;;;;4957105;28;20461;-65
2021/01/23 03:53:47;;;;;;;7.07;1.95;;;13.20;99.90;;;;;;4961846;28;20094;-65
2021/01/23 03:56:14;;;;;;;13.93;2.30;;;13.20;99.90;;;;;;4962668;28;20126;-66
2021/01/23 03:58:40;;;;;;;13.20;2.60;;;13.20;99.90;;;;;;4961566;28;20113;-66
2021/01/23 04:01:07;;;;;;;9.55;1.92;;;13.20;99.90;;;;;;4964038;28;20023;-65
2021/01/23 04:03:34;;;;;;;12.60;1.77;;;13.20;99.90;;;;;;4961321;28;20120;-66
2021/01/23 04:06:01;;;;;;;13.25;2.90;;;13.20;99.90;;;;;;4960836;28;20031;-67
2021/01/23 04:08:28;;;;;;;27.13;3.17;;;13.20;99.90;;;;;;4963048;28;20299;-66
2021/01/23 04:10:54;;;;;;;13.90;2.30;;;13.20;99.90;;;;;;4963210;28;20386;-66
2021/01/23 04:13:21;;;;;;;13.02;1.83;;;13.20;99.90;;;;;;4962962;28;20031;-67
2021/01/23 04:15:48;;;;;;;16.23;2.30;;;13.20;99.90;;;;;;4962242;28;20104;-68
2021/01/23 04:18:14;;;;;;;9.93;2.47;;;13.20;99.90;;;;;;4961737;28;20086;-67
2021/01/23 04:20:41;;;;;;;12.07;2.35;;;13.20;99.90;;;;;;4962700;28;20039;-67
2021/01/23 04:23:07;;;;;;;10.65;2.17;;;13.20;99.90;;;;;;4962161;28;20038;-67
2021/01/23 04:25:34;;;;;;;9.48;2.92;;;13.20;99.90;;;;;;4963461;28;20046;-65
2021/01/23 04:28:01;;;;;;;10.00;1.85;;;13.20;99.90;;;;;;4962334;28;20101;-67
2021/01/23 04:30:27;;;;;;;10.18;2.13;;;13.20;99.90;;;;;;4962599;28;20058;-66
2021/01/23 04:32:54;;;;;;;8.88;2.70;;;13.30;99.90;;;;;;4963749;28;20476;-67
2021/01/23 04:35:21;;;;;;;12.85;3.40;;;13.30;99.90;;;;;;4958513;28;20147;-67
2021/01/23 04:37:48;;;;;;;15.60;2.75;;;13.30;99.90;;;;;;4958817;28;20042;-66
2021/01/23 04:40:15;;;;;;;7.05;1.85;;;13.30;99.90;;;;;;4960661;28;20046;-66
2021/01/23 04:42:42;;;;;;;11.02;2.10;;;13.30;99.90;;;;;;4961195;28;20039;-66
2021/01/23 04:45:11;;;;;;;11.27;1.83;;;13.20;99.90;;;;;;4961767;28;20660;-67
2021/01/23 04:47:38;;;;;;;14.95;3.70;;;13.20;99.90;;;;;;4962000;28;20026;-66
2021/01/23 04:50:09;;;;;;;17.45;1.98;;;13.20;99.90;;;;;;4960658;28;20031;-66
2021/01/23 04:52:38;;;;;;;13.27;2.25;;;13.20;99.90;;;;;;4963215;28;20298;-66
2021/01/23 04:55:06;;;;;;;;;;;13.20;99.90;;;;;;4963964;28;20027;-66
2021/01/23 04:57:32;;;;;;;13.80;2.15;;;13.20;99.90;;;;;;4962361;28;20237;-67
2021/01/23 05:00:00;;;;;;;13.80;2.75;;;13.20;99.90;;;;;;4961555;28;20035;-67
2021/01/23 05:02:26;;;;;;;13.90;2.70;;;13.20;99.90;;;;;;4963305;28;20337;-67
2021/01/23 05:04:59;;;;;;;20.17;3.60;;;13.20;99.90;;;;;;4963667;28;20209;-66
2021/01/23 05:07:30;;;;;;;9.15;1.95;;;13.20;99.90;;;;;;4964138;28;20030;-67
2021/01/23 05:10:23;;;;;;;12.77;2.40;;;13.10;99.90;;;;;;4964152;28;20027;-68
2021/01/23 05:12:52;;;;;;;8.43;2.60;;;13.10;99.90;;;;;;4964289;28;20027;-68
2021/01/23 05:15:32;;;;;;;10.68;2.63;;;13.20;99.90;;;;;;4962702;28;20029;-68
2021/01/23 05:18:05;;;;;;;14.05;2.05;;;13.20;99.90;;;;;;4964294;28;20038;-67
2021/01/23 05:20:33;;;;;;;17.10;3.25;;;13.20;99.90;;;;;;4964958;28;20089;-66
2021/01/23 05:23:18;;;;;;;12.27;3.42;;;13.20;99.90;;;;;;4962777;28;20396;-66
2021/01/23 05:25:49;;;;;;;18.15;2.90;;;13.30;99.90;;;;;;4961091;28;20122;-67
2021/01/23 05:28:29;;;;;;;15.40;3.25;;;13.30;99.90;;;;;;4963071;28;20030;-67
2021/01/23 05:30:57;;;;;;;10.88;2.78;;;13.20;99.90;;;;;;4962344;28;20043;-66
2021/01/23 05:33:23;;;;;;;9.18;2.22;;;13.10;99.90;;;;;;4962451;28;20035;-67
2021/01/23 05:36:01;;;;;;;26.38;2.65;;;13.10;99.90;;;;;;4963247;28;20107;-67
2021/01/23 05:38:28;;;;;;;14.77;2.42;;;13.10;99.90;;;;;;4962491;28;20404;-67
2021/01/23 05:41:14;;;;;;;9.05;3.17;;;13.10;99.90;;;;;;4960515;28;20469;-67
2021/01/23 05:43:51;;;;;;;13.55;2.08;;;13.00;99.90;;;;;;4963276;28;20053;-68
2021/01/23 05:48:55;;;;;;;6.43;1.80;;;13.00;99.90;;;;;;5333335;23;20296;-66
2021/01/23 05:51:23;;;;;;;11.27;1.93;;;13.00;99.90;;;;;;4926377;29;20034;-67
2021/01/23 05:53:50;;;;;;;12.85;2.60;;;13.10;99.90;;;;;;4927546;29;20300;-66
2021/01/23 05:56:17;;;;;;;16.50;2.63;;;13.10;99.90;;;;;;4926749;29;20028;-67
2021/01/23 05:58:45;;;;;;;13.63;2.85;;;13.00;99.90;;;;;;4925553;29;20036;-66
2021/01/23 06:01:22;;;;;;;7.90;2.03;;;13.00;99.90;;;;;;4927594;29;20287;-66
2021/01/23 06:03:50;;;;;;;7.53;2.40;;;13.00;99.90;;;;;;4923963;29;20036;-66
2021/01/23 06:06:17;;;;;;;18.77;3.08;;;13.10;99.90;;;;;;4926912;29;20043;-67
2021/01/23 06:08:44;;;;;;;12.20;2.22;;;13.00;99.90;;;;;;4927310;29;20082;-67
2021/01/23 06:11:20;;;;;;;14.38;3.05;;;13.10;99.90;;;;;;4923918;29;20031;-67
2021/01/23 06:13:50;;;;;;;14.77;2.72;;;13.20;99.90;;;;;;4926341;29;20027;-68
2021/01/23 06:16:35;;;;;;;19.83;3.13;;;13.30;99.90;;;;;;4926387;29;20458;-67
2021/01/23 06:19:07;;;;;;;14.52;3.45;;;13.30;99.90;;;;;;4927755;29;20818;-71
2021/01/23 06:21:43;;;;;;;10.05;2.47;;;13.30;99.90;;;;;;4926290;29;20024;-71
2021/01/23 06:24:10;;;;;;;17.05;2.28;;;13.20;99.90;;;;;;4926819;29;20575;-70
2021/01/23 06:26:55;;;;;;;14.23;2.70;;;13.10;99.90;;;;;;4930984;29;20043;-72
2021/01/23 06:29:32;;;;;;;16.13;2.53;;;13.00;99.90;;;;;;4925359;29;20385;-73
2021/01/23 06:32:19;;;;;;;18.25;2.97;;;12.80;99.90;;;;;;4926739;29;20039;-71
2021/01/23 06:34:51;;;;;;;12.90;2.50;;;12.80;99.90;;;;;;4926684;29;20079;-74
2021/01/23 06:37:39;;;;;;;12.75;2.65;;;12.60;99.90;;;;;;4926113;29;20411;-78
2021/01/23 06:40:17;;;;;;;16.05;3.22;;;12.50;99.90;;;;;;4927826;29;20477;-75
2021/01/23 06:42:49;;;;;;;22.75;3.92;;;12.30;99.90;;;;;;4924645;29;20115;-76
2021/01/23 06:45:27;;;;;;;15.80;2.85;;;12.30;99.90;;;;;;4925914;29;20040;-76
2021/01/23 06:47:57;;;;;;;12.43;2.50;;;12.30;99.90;;;;;;4926743;29;20104;-74
2021/01/23 06:50:29;;;;;;;14.13;2.95;;;12.30;99.90;;;;;;4926534;29;20063;-74
2021/01/23 06:52:57;;;;;;;9.57;2.80;;;12.30;99.90;;;;;;4925580;29;20403;-77
2021/01/23 06:55:48;;;;;;;13.30;2.25;;;12.30;99.90;;;;;;4930682;29;20104;-77
2021/01/23 06:58:22;;;;;;;17.38;4.28;;;12.20;99.90;;;;;;4939714;29;20035;-77
2021/01/23 07:00:51;;;;;;;11.68;2.60;;;12.30;99.90;;;;;;4931599;29;20090;-77
2021/01/23 07:03:18;;;;;;;8.07;2.63;;;12.40;99.90;;;;;;4926011;29;20118;-74
2021/01/23 07:05:51;;;;;;;12.10;2.63;;;12.40;99.90;;;;;;4926775;28;20112;-73
2021/01/23 07:08:30;;;;;;;13.50;2.90;;;12.50;99.90;;;;;;4925530;29;20028;-75
2021/01/23 07:11:08;;;;;;;16.80;2.67;;;12.60;99.90;;;;;;4924612;29;20040;-72
2021/01/23 07:13:36;;;;;;;6.68;1.65;;;12.50;99.90;;;;;;4922289;29;20038;-73
2021/01/23 07:16:04;;;;;;;11.07;1.97;;;12.60;99.90;;;;;;4923503;29;20091;-72
2021/01/23 07:18:31;;;;;;;5.28;0.95;;;12.60;99.90;;;;;;4926038;29;20027;-71
2021/01/23 07:20:57;;;;;;;2.97;0.88;;;12.70;99.90;;;;;;4925271;28;20038;-69
2021/01/23 07:23:24;;;;;;;9.77;1.50;;;12.60;99.90;;;;;;4924768;29;20028;-72
2021/01/23 07:25:51;;;;;;;11.23;1.50;;;12.60;99.90;;;;;;4926869;28;20063;-72
2021/01/23 07:28:19;;;;;;;9.30;1.20;;;12.60;99.90;;;;;;4924875;29;20090;-71
2021/01/23 07:30:46;;;;;;;6.65;0.73;;;12.60;99.90;;;;;;4925289;29;20069;-70
2021/01/23 07:33:32;;;;;;;5.93;1.13;;;12.60;99.90;;;;;;4927764;29;20035;-70
2021/01/23 07:35:59;;;;;;;5.60;0.90;;;12.60;99.90;;;;;;4927951;29;20039;-72
2021/01/23 07:38:27;;;;;;;14.00;2.08;;;12.70;99.90;;;;;;4925161;29;20028;-71
2021/01/23 07:40:57;;;;;;;8.35;1.55;;;12.60;99.90;;;;;;4927090;29;20032;-73
2021/01/23 07:43:24;;;;;;;14.98;2.08;;;12.50;99.90;;;;;;4927444;29;20307;-72
2021/01/23 07:45:56;;;;;;;9.70;1.60;;;12.50;99.90;;;;;;4926392;29;20031;-71
2021/01/23 07:48:23;;;;;;;11.85;2.00;;;12.50;99.90;;;;;;4926432;29;20051;-71
2021/01/23 07:50:50;;;;;;;13.93;1.90;;;12.50;99.90;;;;;;4926367;29;20110;-71
2021/01/23 07:53:22;;;;;;;12.00;1.67;;;12.40;99.90;;;;;;4925176;29;20102;-71
2021/01/23 07:55:50;;;;;;;11.35;2.25;;;12.50;99.90;;;;;;4926887;29;20157;-71
2021/01/23 07:58:17;;;;;;;13.15;1.58;;;12.50;99.90;;;;;;4924564;29;20038;-70
2021/01/23 08:00:44;;;;;;;8.13;1.85;;;12.50;99.90;;;;;;4924457;29;20031;-70
2021/01/23 08:03:11;;;;;;;17.90;3.13;;;12.40;99.90;;;;;;4924403;29;20036;-70
2021/01/23 08:05:51;;;;;;;7.65;2.33;;;12.40;99.90;;;;;;4923252;29;20371;-72
2021/01/23 08:08:35;;;;;;;11.75;2.28;;;12.40;99.90;;;;;;4925200;29;20111;-70
2021/01/23 08:11:06;;;;;;;12.40;2.30;;;12.40;99.90;;;;;;4926732;29;20467;-70
2021/01/23 08:13:35;;;;;;;16.05;1.92;;;12.30;99.90;;;;;;4927398;29;20599;-70
2021/01/23 08:16:12;;;;;;;11.55;2.58;;;12.20;99.90;;;;;;4924152;29;20024;-70
2021/01/23 08:18:39;;;;;;;13.77;2.55;;;12.20;99.90;;;;;;4925288;28;20027;-68
2021/01/23 08:21:16;;;;;;;20.48;2.30;;;12.20;99.90;;;;;;4925335;29;20063;-70
2021/01/23 08:23:43;;;;;;;17.45;2.30;;;12.20;99.90;;;;;;4926333;29;20028;-66
2021/01/23 08:26:09;;;;;;;14.18;2.10;;;12.20;99.90;;;;;;4926000;29;20028;-69
2021/01/23 08:28:42;;;;;;;11.95;3.05;;;12.20;99.90;;;;;;4925725;29;20039;-68
2021/01/23 08:31:19;;;;;;;14.10;2.05;;;12.20;99.90;;;;;;4927132;28;20416;-68
2021/01/23 08:33:48;;;;;;;13.38;1.70;;;12.30;99.90;;;;;;4924984;29;20035;-69
2021/01/23 08:36:15;;;;;;;18.90;2.55;;;12.20;99.90;;;;;;4925540;29;20115;-69
2021/01/23 08:38:42;;;;;;;14.40;2.72;;;12.20;99.90;;;;;;4926952;29;20031;-69
2021/01/23 08:41:08;;;;;;;17.65;3.00;;;12.20;99.90;;;;;;4929245;29;20027;-67
2021/01/23 08:43:35;;;;;;;14.23;1.75;;;12.10;99.90;;;;;;4928327;28;20050;-67
2021/01/23 08:46:02;;;;;;;17.98;2.28;;;12.10;99.90;;;;;;4929012;29;20887;-72
2021/01/23 08:48:28;;;;;;;12.13;2.38;;;12.10;99.90;;;;;;4929653;29;20327;-68
2021/01/23 08:50:55;;;;;;;19.92;2.38;;;12.10;99.90;;;;;;4929161;29;20032;-67
2021/01/23 08:53:22;;;;;;;4.68;1.75;;;12.10;99.90;;;;;;4928921;29;20031;-68
2021/01/23 08:55:49;;;;;;;12.98;1.88;;;12.10;99.90;;;;;;4929238;29;20303;-66
2021/01/23 08:58:15;;;;;;;10.70;1.85;;;12.10;99.90;;;;;;4929379;29;20032;-67
2021/01/23 09:00:42;;;;;;;12.10;1.52;;;12.10;99.90;;;;;;4929484;29;20408;-67
2021/01/23 09:03:08;;;;;;;15.88;3.08;;;12.10;99.90;;;;;;4928624;29;20032;-68
2021/01/23 09:05:35;;;;;;;15.90;2.97;;;12.00;99.90;;;;;;4928934;29;20024;-67
2021/01/23 09:08:02;;;;;;;13.25;2.05;;;12.10;99.90;;;;;;4930465;29;20078;-66
2021/01/23 09:10:28;;;;;;;16.02;1.98;;;12.10;99.90;;;;;;4928752;29;20433;-66
2021/01/23 09:12:55;;;;;;;16.10;1.67;;;12.20;99.90;;;;;;4929046;29;20082;-67
2021/01/23 09:15:22;;;;;;;18.63;2.00;;;12.20;99.90;;;;;;4928740;29;20134;-65
2021/01/23 09:17:48;;;;;;;17.40;2.40;;;12.20;99.90;;;;;;4927524;29;20055;-65
2021/01/23 09:20:15;;;;;;;16.73;2.00;;;12.10;99.90;;;;;;4928265;29;20571;-67
2021/01/23 09:22:42;;;;;;;7.53;1.20;;;12.10;99.90;;;;;;4929572;29;20106;-66
2021/01/23 09:25:09;;;;;;;16.85;2.60;;;12.10;99.90;;;;;;4929637;29;20031;-68
2021/01/23 09:27:36;;;;;;;9.77;1.60;;;12.00;99.90;;;;;;4929579;29;20646;-66
2021/01/23 09:30:04;;;;;;;17.90;2.88;;;12.00;99.90;;;;;;4927710;29;20139;-68
2021/01/23 09:32:30;;;;;;;15.25;1.88;;;12.10;99.90;;;;;;4929061;29;20126;-67
2021/01/23 09:34:57;;;;;;;23.38;3.03;;;12.10;99.90;;;;;;4928113;29;20280;-66
2021/01/23 09:37:25;;;;;;;16.08;2.58;;;12.10;99.90;;;;;;4928456;29;20518;-66
2021/01/23 09:39:52;;;;;;;12.95;1.70;;;12.10;99.90;;;;;;4927664;29;20028;-67
2021/01/23 09:42:20;;;;;;;23.23;2.78;;;12.00;99.90;;;;;;4928760;29;20032;-65
2021/01/23 09:44:46;;;;;;;14.25;1.88;;;12.10;99.90;;;;;;4929878;28;20067;-68
2021/01/23 09:47:14;;;;;;;16.92;3.55;;;12.10;99.90;;;;;;4928109;29;20043;-68
2021/01/23 09:49:41;;;;;;;15.30;3.17;;;12.10;99.90;;;;;;4928102;29;20102;-65
2021/01/23 09:52:08;;;;;;;19.48;2.28;;;12.10;99.90;;;;;;4927673;29;20038;-68
2021/01/23 09:54:34;;;;;;;6.15;1.10;;;12.10;99.90;;;;;;4929625;28;20019;-67
2021/01/23 09:57:05;;;;;;;10.70;2.78;;;12.20;99.90;;;;;;4928427;29;20119;-67
2021/01/23 09:59:32;;;;;;;18.90;2.63;;;12.20;99.90;;;;;;4927471;29;20036;-66
2021/01/23 10:02:00;;;;;;;15.90;2.35;;;12.20;99.90;;;;;;4927589;29;20040;-67
2021/01/23 10:04:27;;;;;;;15.63;2.10;;;12.10;99.90;;;;;;4930201;29;20038;-67
2021/01/23 10:06:55;;;;;;;11.23;1.83;;;12.10;99.90;;;;;;4927318;29;20027;-68
2021/01/23 10:09:22;;;;;;;9.40;1.98;;;12.20;99.90;;;;;;4926975;29;20054;-66
2021/01/23 10:11:49;;;;;;;14.45;1.67;;;12.20;99.90;;;;;;4927845;29;20032;-65
2021/01/23 10:14:17;;;;;;;13.18;2.17;;;12.20;99.90;;;;;;4927843;28;20024;-66
2021/01/23 10:16:44;;;;;;;11.38;2.40;;;12.10;99.90;;;;;;4927503;29;20062;-67
2021/01/23 10:19:10;;;;;;;11.80;2.55;;;12.20;99.90;;;;;;4926994;29;20042;-66
2021/01/23 10:21:38;;;;;;;11.73;1.77;;;12.10;99.90;;;;;;4927527;29;20035;-67
2021/01/23 10:24:05;;;;;;;14.88;2.58;;;12.20;99.90;;;;;;4928483;29;20036;-66
2021/01/23 10:26:33;;;;;;;12.02;1.52;;;12.20;99.90;;;;;;4927971;29;20031;-67
2021/01/23 10:29:00;;;;;;;7.53;1.52;;;12.20;99.90;;;;;;4926280;29;20142;-67
2021/01/23 10:31:26;;;;;;;15.95;1.30;;;12.20;99.90;;;;;;4928129;29;20050;-67
2021/01/23 10:33:53;;;;;;;15.50;3.17;;;12.20;99.90;;;;;;4927543;29;20027;-66
2021/01/23 10:36:20;;;;;;;12.05;1.40;;;12.10;99.90;;;;;;4925774;29;20019;-67
2021/01/23 10:38:47;;;;;;;13.52;1.88;;;12.10;99.90;;;;;;4926216;29;20028;-67
2021/01/23 10:41:14;;;;;;;8.23;1.30;;;12.10;99.90;;;;;;4925058;28;20437;-67
2021/01/23 10:43:41;;;;;;;12.40;2.13;;;12.10;99.90;;;;;;4923603;29;20040;-65
2021/01/23 10:46:08;;;;;;;10.77;1.45;;;12.10;99.90;;;;;;4922797;29;20062;-66
2021/01/23 10:48:34;;;;;;;13.45;1.58;;;12.10;99.90;;;;;;4924860;29;20083;-67
2021/01/23 10:51:01;;;;;;;17.17;2.05;;;12.10;99.90;;;;;;4923571;29;20033;-66
2021/01/23 10:53:28;;;;;;;8.93;2.33;;;12.10;99.90;;;;;;4924558;29;20031;-66
2021/01/23 10:55:54;;;;;;;8.88;1.50;;;12.10;99.90;;;;;;4925647;29;20509;-64
2021/01/23 10:58:21;;;;;;;10.48;2.13;;;12.10;99.90;;;;;;4927180;29;20031;-66
2021/01/23 11:00:48;;;;;;;8.40;1.90;;;12.10;99.90;;;;;;4926391;29;20430;-67
2021/01/23 11:03:14;;;;;;;14.07;2.30;;;12.10;99.90;;;;;;4925614;29;20052;-68
2021/01/23 11:05:41;;;;;;;6.78;1.48;;;12.00;99.90;;;;;;4925896;29;20142;-67
2021/01/23 11:08:07;;;;;;;12.50;1.70;;;12.00;99.90;;;;;;4927359;28;20036;-66
2021/01/23 11:10:35;;;;;;;14.48;2.13;;;12.00;99.90;;;;;;4926702;29;20297;-65
2021/01/23 11:13:01;;;;;;;9.05;1.90;;;11.90;99.90;;;;;;4927217;29;20020;-67
2021/01/23 11:15:28;;;;;;;10.80;1.65;;;11.90;99.90;;;;;;4927392;29;20034;-66
2021/01/23 11:17:55;;;;;;;6.20;1.52;;;11.80;99.90;;;;;;4926148;29;20042;-67
2021/01/23 11:20:21;;;;;;;11.77;1.52;;;11.90;99.90;;;;;;4926747;29;20032;-67
2021/01/23 11:22:49;;;;;;;11.65;1.65;;;11.80;99.90;;;;;;4925597;29;20059;-65
2021/01/23 11:25:16;;;;;;;7.72;1.20;;;11.80;99.90;;;;;;4926414;29;20125;-66
2021/01/23 11:27:43;;;;;;;7.25;1.50;;;11.80;99.90;;;;;;4925974;29;20114;-68
2021/01/23 11:30:10;;;;;;;10.18;1.17;;;11.80;99.90;;;;;;4926624;29;20053;-67
2021/01/23 11:32:37;;;;;;;7.95;1.58;;;11.80;99.90;;;;;;4927233;29;20126;-68
2021/01/23 11:35:05;;;;;;;15.88;1.42;;;11.80;99.90;;;;;;4927688;28;20038;-67
2021/01/23 11:37:32;;;;;;;16.10;3.13;;;11.90;99.90;;;;;;4925662;29;20329;-67
2021/01/23 11:39:58;;;;;;;13.93;1.85;;;11.90;99.90;;;;;;4931510;29;20302;-67
2021/01/23 11:42:25;;;;;;;14.20;1.95;;;11.90;99.90;;;;;;4926293;29;21393;-67
2021/01/23 11:44:52;;;;;;;10.68;1.58;;;11.90;99.90;;;;;;4926311;29;20035;-67
2021/01/23 11:47:18;;;;;;;10.02;1.52;;;11.90;99.90;;;;;;4927010;29;20415;-66
2021/01/23 11:49:45;;;;;;;12.23;1.90;;;11.90;99.90;;;;;;4926380;29;20052;-67
2021/01/23 11:52:12;;;;;;;20.33;1.88;;;11.90;99.90;;;;;;4926706;29;20027;-65
2021/01/23 11:54:39;;;;;;;12.95;1.88;;;12.00;99.90;;;;;;4926974;29;20036;-65
2021/01/23 11:57:08;;;;;;;11.48;1.52;;;12.00;99.90;;;;;;4926019;28;20032;-66
2021/01/23 11:59:37;;;;;;;;;;;12.00;99.90;;;;;;4926726;29;20091;-66
2021/01/23 12:02:04;;;;;;;8.02;1.67;;;12.00;99.90;;;;;;4926759;29;19998;-66
2021/01/23 12:04:30;;;;;;;15.82;2.05;;;12.00;99.90;;;;;;4927409;29;20071;-66
2021/01/23 12:06:58;;;;;;;11.75;2.38;;;11.90;99.90;;;;;;4926148;29;20887;-68
2021/01/23 12:09:25;;;;;;;11.75;1.63;;;12.00;99.90;;;;;;4926186;29;20036;-65
2021/01/23 12:11:51;;;;;;;15.88;1.67;;;12.00;99.90;;;;;;4927215;28;20416;-68
2021/01/23 12:14:18;;;;;;;10.00;2.65;;;12.00;99.90;;;;;;4929737;29;20099;-66
2021/01/23 12:16:44;;;;;;;8.43;1.52;;;12.00;99.90;;;;;;4930585;28;20095;-67
2021/01/23 12:19:11;;;;;;;6.65;1.38;;;12.00;99.90;;;;;;4929496;28;20279;-66
2021/01/23 12:21:38;;;;;;;11.20;1.75;;;11.90;99.90;;;;;;4929340;29;20088;-65
2021/01/23 12:24:05;;;;;;;8.32;1.67;;;11.90;99.90;;;;;;4930612;28;20032;-65
2021/01/23 12:26:34;;;;;;;17.05;2.17;;;11.90;99.90;;;;;;4929603;29;20036;-65
2021/01/23 12:29:01;;;;;;;9.52;1.75;;;11.90;99.90;;;;;;4928778;28;20032;-64
2021/01/23 12:31:28;;;;;;;13.57;1.58;;;11.90;99.90;;;;;;4930775;29;20309;-65
2021/01/23 12:33:54;;;;;;;10.27;2.10;;;11.90;99.90;;;;;;4932169;29;20040;-66
2021/01/23 12:36:21;;;;;;;12.65;1.83;;;11.90;99.90;;;;;;4928643;29;20355;-66
2021/01/23 12:38:48;;;;;;;11.30;1.40;;;11.80;99.90;;;;;;4929747;29;20047;-65
2021/01/23 12:41:15;;;;;;;10.82;1.63;;;11.80;99.90;;;;;;4929762;28;20429;-66
2021/01/23 12:43:41;;;;;;;11.73;2.40;;;11.80;99.90;;;;;;4929782;29;20044;-66
2021/01/23 12:46:08;;;;;;;12.50;1.65;;;11.80;99.90;;;;;;4931833;29;20051;-66
2021/01/23 12:48:34;;;;;;;6.95;1.20;;;11.70;99.90;;;;;;4928869;28;20052;-66
2021/01/23 12:51:01;;;;;;;7.57;1.15;;;11.70;99.90;;;;;;4930183;29;20036;-66
2021/01/23 12:53:28;;;;;;;8.73;1.30;;;11.70;99.90;;;;;;4930570;29;20024;-66